sensor_id;sensor_type;location;lat;lon;timestamp;pressure;altitude;pressure_sealevel;temperature;humidity
28004;BME280;15330;51.234;6.754;2023-04-06T00:01:38;101316.66;;;7.41;51.16
28004;BME280;15330;51.234;6.754;2023-04-06T00:04:04;101318.94;;;7.24;50.29
28004;BME280;15330;51.234;6.754;2023-04-06T00:06:30;101316.41;;;7.44;51.23
28004;BME280;15330;51.234;6.754;2023-04-06T00:08:57;101306.91;;;7.51;49.76
28004;BME280;15330;51.234;6.754;2023-04-06T00:11:22;101311.72;;;7.57;50.02
28004;BME280;15330;51.234;6.754;2023-04-06T00:13:48;101310.03;;;7.56;50.93
28004;BME280;15330;51.234;6.754;2023-04-06T00:16:13;101320.69;;;7.14;51.50
28004;BME280;15330;51.234;6.754;2023-04-06T00:18:39;101307.78;;;6.78;51.12
28004;BME280;15330;51.234;6.754;2023-04-06T00:21:05;101306.44;;;6.83;51.59
28004;BME280;15330;51.234;6.754;2023-04-06T00:23:30;101307.63;;;6.90;51.75
28004;BME280;15330;51.234;6.754;2023-04-06T00:25:56;101308.81;;;6.54;52.09
28004;BME280;15330;51.234;6.754;2023-04-06T00:28:21;101305.88;;;6.69;53.24
28004;BME280;15330;51.234;6.754;2023-04-06T00:30:51;101298.56;;;6.50;53.76
28004;BME280;15330;51.234;6.754;2023-04-06T00:33:18;101299.03;;;6.55;53.24
28004;BME280;15330;51.234;6.754;2023-04-06T00:35:44;101294.88;;;6.30;53.58
28004;BME280;15330;51.234;6.754;2023-04-06T00:38:09;101292.53;;;6.48;54.10
28004;BME280;15330;51.234;6.754;2023-04-06T00:40:35;101292.31;;;6.40;54.16
28004;BME280;15330;51.234;6.754;2023-04-06T00:43:00;101291.56;;;6.49;53.84
28004;BME280;15330;51.234;6.754;2023-04-06T00:45:26;101287.44;;;6.56;54.28
28004;BME280;15330;51.234;6.754;2023-04-06T00:47:51;101290.28;;;6.32;55.08
28004;BME280;15330;51.234;6.754;2023-04-06T00:50:17;101289.38;;;6.11;55.89
28004;BME280;15330;51.234;6.754;2023-04-06T00:52:42;101276.09;;;6.11;56.71
28004;BME280;15330;51.234;6.754;2023-04-06T00:55:08;101289.72;;;5.95;57.56
28004;BME280;15330;51.234;6.754;2023-04-06T00:57:33;101278.53;;;5.92;58.28
28004;BME280;15330;51.234;6.754;2023-04-06T00:59:59;101273.88;;;5.71;59.76
28004;BME280;15330;51.234;6.754;2023-04-06T01:02:24;101281.28;;;5.90;59.01
28004;BME280;15330;51.234;6.754;2023-04-06T01:04:52;101269.31;;;5.96;59.37
28004;BME280;15330;51.234;6.754;2023-04-06T01:07:17;101268.47;;;6.06;59.23
28004;BME280;15330;51.234;6.754;2023-04-06T01:09:43;101261.09;;;5.87;59.83
28004;BME280;15330;51.234;6.754;2023-04-06T01:12:08;101250.50;;;6.10;60.05
28004;BME280;15330;51.234;6.754;2023-04-06T01:14:34;101255.19;;;6.06;59.22
28004;BME280;15330;51.234;6.754;2023-04-06T01:16:59;101259.19;;;6.12;60.09
28004;BME280;15330;51.234;6.754;2023-04-06T01:19:26;101256.03;;;6.07;59.19
28004;BME280;15330;51.234;6.754;2023-04-06T01:21:51;101251.44;;;5.86;60.30
28004;BME280;15330;51.234;6.754;2023-04-06T01:24:18;101255.94;;;5.97;60.14
28004;BME280;15330;51.234;6.754;2023-04-06T01:26:44;101250.72;;;5.84;60.08
28004;BME280;15330;51.234;6.754;2023-04-06T01:29:10;101253.03;;;5.56;61.26
28004;BME280;15330;51.234;6.754;2023-04-06T01:31:35;101246.75;;;5.79;60.94
28004;BME280;15330;51.234;6.754;2023-04-06T01:34:01;101247.09;;;5.41;61.69
28004;BME280;15330;51.234;6.754;2023-04-06T01:36:26;101251.22;;;5.45;61.76
28004;BME280;15330;51.234;6.754;2023-04-06T01:38:52;101238.69;;;5.58;61.73
28004;BME280;15330;51.234;6.754;2023-04-06T01:41:17;101246.25;;;5.63;61.58
28004;BME280;15330;51.234;6.754;2023-04-06T01:43:44;101241.63;;;5.20;63.28
28004;BME280;15330;51.234;6.754;2023-04-06T01:46:09;101239.63;;;5.35;62.86
28004;BME280;15330;51.234;6.754;2023-04-06T01:48:35;101244.09;;;5.34;63.21
28004;BME280;15330;51.234;6.754;2023-04-06T01:51:01;101244.09;;;5.34;63.40
28004;BME280;15330;51.234;6.754;2023-04-06T01:53:27;101239.56;;;5.01;64.83
28004;BME280;15330;51.234;6.754;2023-04-06T01:55:52;101236.47;;;5.30;64.09
28004;BME280;15330;51.234;6.754;2023-04-06T01:58:17;101233.34;;;5.25;64.40
28004;BME280;15330;51.234;6.754;2023-04-06T02:00:43;101224.41;;;5.14;64.93
28004;BME280;15330;51.234;6.754;2023-04-06T02:03:08;101234.75;;;5.06;65.54
28004;BME280;15330;51.234;6.754;2023-04-06T02:05:34;101241.19;;;4.80;66.45
28004;BME280;15330;51.234;6.754;2023-04-06T02:08:06;101236.31;;;4.98;65.91
28004;BME280;15330;51.234;6.754;2023-04-06T02:10:32;101231.31;;;4.82;67.10
28004;BME280;15330;51.234;6.754;2023-04-06T02:12:58;101226.69;;;4.97;66.52
28004;BME280;15330;51.234;6.754;2023-04-06T02:15:23;101232.00;;;5.08;65.90
28004;BME280;15330;51.234;6.754;2023-04-06T02:17:49;101227.19;;;5.13;65.73
28004;BME280;15330;51.234;6.754;2023-04-06T02:20:14;101228.97;;;5.01;65.79
28004;BME280;15330;51.234;6.754;2023-04-06T02:22:40;101223.41;;;4.93;65.54
28004;BME280;15330;51.234;6.754;2023-04-06T02:25:06;101228.47;;;4.96;65.64
28004;BME280;15330;51.234;6.754;2023-04-06T02:27:31;101218.44;;;4.89;65.00
28004;BME280;15330;51.234;6.754;2023-04-06T02:29:57;101216.31;;;5.05;64.18
28004;BME280;15330;51.234;6.754;2023-04-06T02:32:22;101216.06;;;4.97;64.14
28004;BME280;15330;51.234;6.754;2023-04-06T02:34:47;101213.78;;;5.03;63.62
28004;BME280;15330;51.234;6.754;2023-04-06T02:37:13;101217.84;;;4.85;64.20
28004;BME280;15330;51.234;6.754;2023-04-06T02:39:38;101218.22;;;4.92;64.88
28004;BME280;15330;51.234;6.754;2023-04-06T02:42:04;101217.97;;;4.95;64.39
28004;BME280;15330;51.234;6.754;2023-04-06T02:44:29;101223.63;;;4.90;64.41
28004;BME280;15330;51.234;6.754;2023-04-06T02:46:54;101215.97;;;4.98;63.70
28004;BME280;15330;51.234;6.754;2023-04-06T02:49:20;101214.59;;;4.58;64.48
28004;BME280;15330;51.234;6.754;2023-04-06T02:51:45;101211.28;;;4.67;64.18
28004;BME280;15330;51.234;6.754;2023-04-06T02:54:11;101212.53;;;4.50;64.16
28004;BME280;15330;51.234;6.754;2023-04-06T02:56:36;101214.91;;;4.66;63.84
28004;BME280;15330;51.234;6.754;2023-04-06T02:59:01;101217.50;;;4.55;64.57
28004;BME280;15330;51.234;6.754;2023-04-06T03:01:27;101209.31;;;4.58;63.54
28004;BME280;15330;51.234;6.754;2023-04-06T03:03:52;101211.75;;;4.61;63.86
28004;BME280;15330;51.234;6.754;2023-04-06T03:06:18;101205.66;;;4.48;63.81
28004;BME280;15330;51.234;6.754;2023-04-06T03:08:43;101215.22;;;4.61;63.42
28004;BME280;15330;51.234;6.754;2023-04-06T03:11:08;101211.91;;;4.47;63.81
28004;BME280;15330;51.234;6.754;2023-04-06T03:13:36;101206.44;;;4.61;62.99
28004;BME280;15330;51.234;6.754;2023-04-06T03:16:04;101202.13;;;4.71;62.84
28004;BME280;15330;51.234;6.754;2023-04-06T03:18:30;101204.59;;;4.50;63.76
28004;BME280;15330;51.234;6.754;2023-04-06T03:20:55;101202.22;;;4.58;63.32
28004;BME280;15330;51.234;6.754;2023-04-06T03:23:21;101202.59;;;4.65;62.99
28004;BME280;15330;51.234;6.754;2023-04-06T03:25:46;101204.63;;;4.61;62.69
28004;BME280;15330;51.234;6.754;2023-04-06T03:28:12;101206.34;;;4.38;63.54
28004;BME280;15330;51.234;6.754;2023-04-06T03:30:37;101206.63;;;4.47;63.35
28004;BME280;15330;51.234;6.754;2023-04-06T03:33:03;101208.25;;;4.60;63.04
28004;BME280;15330;51.234;6.754;2023-04-06T03:35:28;101202.41;;;4.44;63.40
28004;BME280;15330;51.234;6.754;2023-04-06T03:37:53;101206.97;;;4.18;64.22
28004;BME280;15330;51.234;6.754;2023-04-06T03:40:19;101203.31;;;4.32;64.08
28004;BME280;15330;51.234;6.754;2023-04-06T03:42:44;101199.94;;;4.30;64.30
28004;BME280;15330;51.234;6.754;2023-04-06T03:45:10;101202.47;;;4.31;64.50
28004;BME280;15330;51.234;6.754;2023-04-06T03:47:35;101195.75;;;4.38;64.26
28004;BME280;15330;51.234;6.754;2023-04-06T03:50:01;101196.84;;;4.36;64.82
28004;BME280;15330;51.234;6.754;2023-04-06T03:52:26;101205.50;;;4.38;65.01
28004;BME280;15330;51.234;6.754;2023-04-06T03:54:52;101194.25;;;4.23;64.45
28004;BME280;15330;51.234;6.754;2023-04-06T03:57:17;101198.66;;;4.12;64.94
28004;BME280;15330;51.234;6.754;2023-04-06T03:59:43;101198.81;;;4.21;64.37
28004;BME280;15330;51.234;6.754;2023-04-06T04:02:08;101192.84;;;4.30;64.19
28004;BME280;15330;51.234;6.754;2023-04-06T04:04:34;101201.16;;;4.37;63.92
28004;BME280;15330;51.234;6.754;2023-04-06T04:06:59;101196.16;;;4.21;64.47
28004;BME280;15330;51.234;6.754;2023-04-06T04:09:25;101197.00;;;4.46;63.91
28004;BME280;15330;51.234;6.754;2023-04-06T04:11:50;101204.84;;;4.23;64.69
28004;BME280;15330;51.234;6.754;2023-04-06T04:14:15;101199.50;;;4.36;65.08
28004;BME280;15330;51.234;6.754;2023-04-06T04:16:41;101194.06;;;4.37;65.20
28004;BME280;15330;51.234;6.754;2023-04-06T04:19:07;101200.84;;;4.18;65.54
28004;BME280;15330;51.234;6.754;2023-04-06T04:21:32;101198.84;;;4.09;65.45
28004;BME280;15330;51.234;6.754;2023-04-06T04:23:57;101198.75;;;4.10;65.51
28004;BME280;15330;51.234;6.754;2023-04-06T04:26:23;101201.88;;;4.04;65.42
28004;BME280;15330;51.234;6.754;2023-04-06T04:28:48;101191.50;;;4.25;64.77
28004;BME280;15330;51.234;6.754;2023-04-06T04:31:14;101203.75;;;4.26;65.12
28004;BME280;15330;51.234;6.754;2023-04-06T04:33:39;101197.00;;;4.46;64.95
28004;BME280;15330;51.234;6.754;2023-04-06T04:36:05;101199.56;;;4.58;64.87
28004;BME280;15330;51.234;6.754;2023-04-06T04:38:31;101200.59;;;4.45;65.08
28004;BME280;15330;51.234;6.754;2023-04-06T04:40:56;101195.25;;;4.68;64.84
28004;BME280;15330;51.234;6.754;2023-04-06T04:43:21;101196.06;;;4.58;63.90
28004;BME280;15330;51.234;6.754;2023-04-06T04:45:47;101195.09;;;4.59;63.88
28004;BME280;15330;51.234;6.754;2023-04-06T04:48:12;101195.47;;;4.30;64.36
28004;BME280;15330;51.234;6.754;2023-04-06T04:50:38;101198.91;;;4.43;64.34
28004;BME280;15330;51.234;6.754;2023-04-06T04:53:03;101198.22;;;4.53;64.05
28004;BME280;15330;51.234;6.754;2023-04-06T04:55:31;101198.06;;;4.43;63.95
28004;BME280;15330;51.234;6.754;2023-04-06T04:57:56;101194.22;;;4.47;63.71
28004;BME280;15330;51.234;6.754;2023-04-06T05:00:22;101197.56;;;4.38;63.96
28004;BME280;15330;51.234;6.754;2023-04-06T05:02:47;101194.88;;;4.62;63.64
28004;BME280;15330;51.234;6.754;2023-04-06T05:05:13;101202.56;;;4.54;63.27
28004;BME280;15330;51.234;6.754;2023-04-06T05:07:38;101196.75;;;4.49;62.80
28004;BME280;15330;51.234;6.754;2023-04-06T05:10:04;101197.78;;;4.70;61.83
28004;BME280;15330;51.234;6.754;2023-04-06T05:12:30;101199.81;;;4.55;62.62
28004;BME280;15330;51.234;6.754;2023-04-06T05:14:55;101200.81;;;4.65;62.76
28004;BME280;15330;51.234;6.754;2023-04-06T05:17:21;101209.63;;;4.77;62.00
28004;BME280;15330;51.234;6.754;2023-04-06T05:19:46;101200.72;;;4.89;61.07
28004;BME280;15330;51.234;6.754;2023-04-06T05:22:12;101190.06;;;5.24;59.72
28004;BME280;15330;51.234;6.754;2023-04-06T05:24:39;101201.41;;;5.26;60.11
28004;BME280;15330;51.234;6.754;2023-04-06T05:27:05;101206.06;;;5.00;60.60
28004;BME280;15330;51.234;6.754;2023-04-06T05:29:31;101198.81;;;4.91;60.38
28004;BME280;15330;51.234;6.754;2023-04-06T05:31:56;101201.22;;;4.94;60.54
28004;BME280;15330;51.234;6.754;2023-04-06T05:34:22;101196.69;;;5.41;58.97
28004;BME280;15330;51.234;6.754;2023-04-06T05:36:47;101196.91;;;5.71;57.63
28004;BME280;15330;51.234;6.754;2023-04-06T05:39:12;101202.97;;;5.51;58.40
28004;BME280;15330;51.234;6.754;2023-04-06T05:41:38;101206.84;;;5.47;58.37
28004;BME280;15330;51.234;6.754;2023-04-06T05:44:03;101209.34;;;5.26;57.77
28004;BME280;15330;51.234;6.754;2023-04-06T05:46:29;101204.06;;;5.60;57.11
28004;BME280;15330;51.234;6.754;2023-04-06T05:48:55;101208.00;;;6.10;55.60
28004;BME280;15330;51.234;6.754;2023-04-06T05:51:20;101208.44;;;6.15;55.08
28004;BME280;15330;51.234;6.754;2023-04-06T05:53:46;101213.09;;;5.68;55.76
28004;BME280;15330;51.234;6.754;2023-04-06T05:56:11;101210.34;;;5.70;56.33
28004;BME280;15330;51.234;6.754;2023-04-06T05:58:37;101205.59;;;5.62;56.75
28004;BME280;15330;51.234;6.754;2023-04-06T06:01:03;101204.72;;;6.49;54.44
28004;BME280;15330;51.234;6.754;2023-04-06T06:03:29;101204.50;;;5.98;55.41
28004;BME280;15330;51.234;6.754;2023-04-06T06:06:04;101208.38;;;6.37;54.28
28004;BME280;15330;51.234;6.754;2023-04-06T06:08:30;101204.34;;;6.22;54.95
28004;BME280;15330;51.234;6.754;2023-04-06T06:10:56;101206.31;;;6.73;54.03
28004;BME280;15330;51.234;6.754;2023-04-06T06:13:24;101195.53;;;6.53;53.78
28004;BME280;15330;51.234;6.754;2023-04-06T06:15:50;101197.41;;;6.83;53.22
28004;BME280;15330;51.234;6.754;2023-04-06T06:18:16;101192.06;;;7.25;51.17
28004;BME280;15330;51.234;6.754;2023-04-06T06:20:41;101184.03;;;7.15;50.63
28004;BME280;15330;51.234;6.754;2023-04-06T06:23:07;101183.41;;;7.32;51.20
28004;BME280;15330;51.234;6.754;2023-04-06T06:25:32;101185.81;;;7.76;49.95
28004;BME280;15330;51.234;6.754;2023-04-06T06:27:58;101189.47;;;7.74;49.80
28004;BME280;15330;51.234;6.754;2023-04-06T06:30:24;101187.72;;;8.14;49.56
28004;BME280;15330;51.234;6.754;2023-04-06T06:32:50;101194.38;;;8.48;48.44
28004;BME280;15330;51.234;6.754;2023-04-06T06:35:16;101188.28;;;8.07;49.61
28004;BME280;15330;51.234;6.754;2023-04-06T06:37:41;101199.25;;;8.33;47.67
28004;BME280;15330;51.234;6.754;2023-04-06T06:40:08;101193.59;;;7.98;49.01
28004;BME280;15330;51.234;6.754;2023-04-06T06:42:34;101187.31;;;8.28;48.35
28004;BME280;15330;51.234;6.754;2023-04-06T06:44:59;101192.25;;;8.71;47.63
28004;BME280;15330;51.234;6.754;2023-04-06T06:47:25;101192.94;;;8.54;47.96
28004;BME280;15330;51.234;6.754;2023-04-06T06:49:51;101188.78;;;8.51;47.10
28004;BME280;15330;51.234;6.754;2023-04-06T06:52:16;101177.75;;;9.67;45.09
28004;BME280;15330;51.234;6.754;2023-04-06T06:54:42;101194.47;;;8.95;45.55
28004;BME280;15330;51.234;6.754;2023-04-06T06:57:07;101176.69;;;9.60;45.55
28004;BME280;15330;51.234;6.754;2023-04-06T06:59:33;101191.03;;;9.58;45.18
28004;BME280;15330;51.234;6.754;2023-04-06T07:01:58;101180.38;;;10.04;44.32
28004;BME280;15330;51.234;6.754;2023-04-06T07:04:23;101181.94;;;9.51;45.61
28004;BME280;15330;51.234;6.754;2023-04-06T07:06:49;101189.69;;;10.45;43.97
28004;BME280;15330;51.234;6.754;2023-04-06T07:09:14;101187.31;;;10.42;43.59
28004;BME280;15330;51.234;6.754;2023-04-06T07:11:39;101187.41;;;10.93;42.10
28004;BME280;15330;51.234;6.754;2023-04-06T07:14:05;101183.31;;;12.09;41.05
28004;BME280;15330;51.234;6.754;2023-04-06T07:16:30;101185.16;;;10.63;44.30
28004;BME280;15330;51.234;6.754;2023-04-06T07:18:56;101179.41;;;9.03;46.89
28004;BME280;15330;51.234;6.754;2023-04-06T07:21:21;101170.38;;;11.20;44.05
28004;BME280;15330;51.234;6.754;2023-04-06T07:23:46;101173.91;;;10.59;43.52
28004;BME280;15330;51.234;6.754;2023-04-06T07:26:13;101165.59;;;9.82;45.11
28004;BME280;15330;51.234;6.754;2023-04-06T07:28:38;101167.34;;;9.73;45.10
28004;BME280;15330;51.234;6.754;2023-04-06T07:31:04;101167.47;;;10.26;43.98
28004;BME280;15330;51.234;6.754;2023-04-06T07:33:29;101162.81;;;10.72;43.18
28004;BME280;15330;51.234;6.754;2023-04-06T07:35:56;101167.06;;;11.34;43.21
28004;BME280;15330;51.234;6.754;2023-04-06T07:38:22;101161.78;;;11.85;42.21
28004;BME280;15330;51.234;6.754;2023-04-06T07:40:47;101166.59;;;11.39;42.20
28004;BME280;15330;51.234;6.754;2023-04-06T07:43:13;101169.66;;;10.92;43.75
28004;BME280;15330;51.234;6.754;2023-04-06T07:45:38;101163.16;;;10.69;43.75
28004;BME280;15330;51.234;6.754;2023-04-06T07:48:04;101161.13;;;10.27;44.49
28004;BME280;15330;51.234;6.754;2023-04-06T07:50:29;101160.44;;;10.25;45.11
28004;BME280;15330;51.234;6.754;2023-04-06T07:52:55;101156.41;;;11.76;41.66
28004;BME280;15330;51.234;6.754;2023-04-06T07:55:20;101164.75;;;10.62;43.97
28004;BME280;15330;51.234;6.754;2023-04-06T07:57:45;101148.44;;;11.25;43.21
28004;BME280;15330;51.234;6.754;2023-04-06T08:00:11;101156.41;;;11.09;42.66
28004;BME280;15330;51.234;6.754;2023-04-06T08:02:37;101146.75;;;11.24;41.92
28004;BME280;15330;51.234;6.754;2023-04-06T08:05:02;101156.63;;;11.23;41.88
28004;BME280;15330;51.234;6.754;2023-04-06T08:07:28;101155.44;;;11.18;41.90
28004;BME280;15330;51.234;6.754;2023-04-06T08:09:53;101156.00;;;10.34;43.84
28004;BME280;15330;51.234;6.754;2023-04-06T08:12:18;101151.34;;;11.31;42.89
28004;BME280;15330;51.234;6.754;2023-04-06T08:14:44;101154.34;;;11.28;42.14
28004;BME280;15330;51.234;6.754;2023-04-06T08:17:09;101157.34;;;11.33;43.04
28004;BME280;15330;51.234;6.754;2023-04-06T08:19:35;101154.44;;;11.53;42.87
28004;BME280;15330;51.234;6.754;2023-04-06T08:22:00;101151.97;;;11.59;42.11
28004;BME280;15330;51.234;6.754;2023-04-06T08:24:26;101156.09;;;11.80;41.42
28004;BME280;15330;51.234;6.754;2023-04-06T08:26:51;101155.94;;;11.47;41.81
28004;BME280;15330;51.234;6.754;2023-04-06T08:29:17;101154.88;;;12.73;40.14
28004;BME280;15330;51.234;6.754;2023-04-06T08:31:43;101148.06;;;13.34;39.31
28004;BME280;15330;51.234;6.754;2023-04-06T08:34:08;101153.53;;;12.77;41.12
28004;BME280;15330;51.234;6.754;2023-04-06T08:36:33;101151.00;;;12.43;41.39
28004;BME280;15330;51.234;6.754;2023-04-06T08:39:00;101157.22;;;12.35;41.58
28004;BME280;15330;51.234;6.754;2023-04-06T08:41:25;101145.75;;;13.70;39.58
28004;BME280;15330;51.234;6.754;2023-04-06T08:44:00;101144.84;;;14.39;38.35
28004;BME280;15330;51.234;6.754;2023-04-06T08:46:26;101151.34;;;12.64;40.96
28004;BME280;15330;51.234;6.754;2023-04-06T08:49:02;101145.75;;;13.06;40.55
28004;BME280;15330;51.234;6.754;2023-04-06T08:51:29;101153.19;;;12.64;41.38
28004;BME280;15330;51.234;6.754;2023-04-06T08:53:56;101145.63;;;12.83;41.10
28004;BME280;15330;51.234;6.754;2023-04-06T08:56:27;101137.81;;;14.30;39.70
28004;BME280;15330;51.234;6.754;2023-04-06T08:58:54;101138.28;;;13.49;40.91
28004;BME280;15330;51.234;6.754;2023-04-06T09:01:22;101136.59;;;12.52;41.61
28004;BME280;15330;51.234;6.754;2023-04-06T09:03:49;101139.25;;;12.28;41.69
28004;BME280;15330;51.234;6.754;2023-04-06T09:06:16;101136.53;;;13.01;40.79
28004;BME280;15330;51.234;6.754;2023-04-06T09:08:42;101138.34;;;13.25;40.46
28004;BME280;15330;51.234;6.754;2023-04-06T09:11:08;101137.69;;;13.62;39.87
28004;BME280;15330;51.234;6.754;2023-04-06T09:13:50;101135.19;;;12.07;42.21
28004;BME280;15330;51.234;6.754;2023-04-06T09:16:16;101139.25;;;12.60;41.65
28004;BME280;15330;51.234;6.754;2023-04-06T09:18:42;101135.22;;;12.80;40.85
28004;BME280;15330;51.234;6.754;2023-04-06T09:21:08;101143.44;;;12.14;42.21
28004;BME280;15330;51.234;6.754;2023-04-06T09:23:34;101140.59;;;12.32;42.56
28004;BME280;15330;51.234;6.754;2023-04-06T09:26:12;101130.00;;;12.06;43.28
28004;BME280;15330;51.234;6.754;2023-04-06T09:28:48;101140.25;;;12.67;41.74
28004;BME280;15330;51.234;6.754;2023-04-06T09:31:21;101126.63;;;11.96;42.83
28004;BME280;15330;51.234;6.754;2023-04-06T09:33:47;101127.22;;;12.56;42.60
28004;BME280;15330;51.234;6.754;2023-04-06T09:36:13;101125.19;;;11.67;43.17
28004;BME280;15330;51.234;6.754;2023-04-06T09:38:57;101121.00;;;12.39;42.70
28004;BME280;15330;51.234;6.754;2023-04-06T09:41:31;101119.13;;;12.48;42.56
28004;BME280;15330;51.234;6.754;2023-04-06T09:44:07;101110.28;;;12.56;41.45
28004;BME280;15330;51.234;6.754;2023-04-06T09:46:34;101111.19;;;13.58;40.21
28004;BME280;15330;51.234;6.754;2023-04-06T09:49:02;101111.09;;;13.75;39.86
28004;BME280;15330;51.234;6.754;2023-04-06T09:51:31;101111.50;;;13.64;39.73
28004;BME280;15330;51.234;6.754;2023-04-06T09:53:57;101105.81;;;13.50;39.38
28004;BME280;15330;51.234;6.754;2023-04-06T09:56:28;101112.25;;;12.86;40.59
28004;BME280;15330;51.234;6.754;2023-04-06T09:59:02;101117.41;;;14.13;38.56
28004;BME280;15330;51.234;6.754;2023-04-06T10:01:30;101113.66;;;13.99;39.13
28004;BME280;15330;51.234;6.754;2023-04-06T10:04:09;101114.72;;;13.51;39.27
28004;BME280;15330;51.234;6.754;2023-04-06T10:06:38;101112.03;;;13.59;39.77
28004;BME280;15330;51.234;6.754;2023-04-06T10:09:04;101114.78;;;14.05;39.23
28004;BME280;15330;51.234;6.754;2023-04-06T10:11:33;101110.63;;;13.32;40.54
28004;BME280;15330;51.234;6.754;2023-04-06T10:14:00;101115.44;;;13.45;39.83
28004;BME280;15330;51.234;6.754;2023-04-06T10:16:26;101111.03;;;12.97;41.26
28004;BME280;15330;51.234;6.754;2023-04-06T10:19:02;101115.09;;;13.48;41.37
28004;BME280;15330;51.234;6.754;2023-04-06T10:21:32;101113.56;;;13.84;41.23
28004;BME280;15330;51.234;6.754;2023-04-06T10:23:59;101121.03;;;13.35;41.31
28004;BME280;15330;51.234;6.754;2023-04-06T10:26:25;101125.59;;;13.27;42.33
28004;BME280;15330;51.234;6.754;2023-04-06T10:28:51;101118.25;;;13.04;42.98
28004;BME280;15330;51.234;6.754;2023-04-06T10:31:27;101128.94;;;13.29;42.40
28004;BME280;15330;51.234;6.754;2023-04-06T10:33:54;101117.84;;;13.32;42.79
28004;BME280;15330;51.234;6.754;2023-04-06T10:36:25;101109.94;;;13.38;42.47
28004;BME280;15330;51.234;6.754;2023-04-06T10:38:57;101114.22;;;13.55;42.38
28004;BME280;15330;51.234;6.754;2023-04-06T10:41:23;101106.41;;;14.68;40.94
28004;BME280;15330;51.234;6.754;2023-04-06T10:43:56;101101.25;;;15.25;40.16
28004;BME280;15330;51.234;6.754;2023-04-06T10:46:26;101112.69;;;14.15;40.81
28004;BME280;15330;51.234;6.754;2023-04-06T10:48:52;101107.72;;;14.04;40.82
28004;BME280;15330;51.234;6.754;2023-04-06T10:51:18;101107.38;;;14.07;40.97
28004;BME280;15330;51.234;6.754;2023-04-06T10:53:45;101105.69;;;14.06;41.42
28004;BME280;15330;51.234;6.754;2023-04-06T10:56:16;101106.44;;;14.83;40.50
28004;BME280;15330;51.234;6.754;2023-04-06T10:58:49;101108.09;;;14.01;41.76
28004;BME280;15330;51.234;6.754;2023-04-06T11:01:15;101107.78;;;13.95;42.27
28004;BME280;15330;51.234;6.754;2023-04-06T11:03:46;101111.75;;;14.08;42.26
28004;BME280;15330;51.234;6.754;2023-04-06T11:06:18;101103.72;;;14.00;42.19
28004;BME280;15330;51.234;6.754;2023-04-06T11:08:43;101102.13;;;13.59;43.14
28004;BME280;15330;51.234;6.754;2023-04-06T11:11:14;101102.78;;;13.06;44.58
28004;BME280;15330;51.234;6.754;2023-04-06T11:13:42;101105.25;;;13.32;45.08
28004;BME280;15330;51.234;6.754;2023-04-06T11:16:21;101099.06;;;13.23;45.35
28004;BME280;15330;51.234;6.754;2023-04-06T11:21:16;101099.53;;;12.56;46.51
28004;BME280;15330;51.234;6.754;2023-04-06T11:23:41;101099.69;;;12.62;46.95
28004;BME280;15330;51.234;6.754;2023-04-06T11:26:13;101103.22;;;12.55;47.90
28004;BME280;15330;51.234;6.754;2023-04-06T11:28:42;101110.94;;;12.33;48.58
28004;BME280;15330;51.234;6.754;2023-04-06T11:31:09;101101.19;;;12.48;47.82
28004;BME280;15330;51.234;6.754;2023-04-06T11:33:35;101109.09;;;12.42;48.57
28004;BME280;15330;51.234;6.754;2023-04-06T11:36:02;101099.34;;;12.65;48.14
28004;BME280;15330;51.234;6.754;2023-04-06T11:38:27;101095.81;;;12.73;48.40
28004;BME280;15330;51.234;6.754;2023-04-06T11:40:53;101100.69;;;12.53;49.06
28004;BME280;15330;51.234;6.754;2023-04-06T11:43:29;101085.66;;;12.99;48.04
28004;BME280;15330;51.234;6.754;2023-04-06T11:46:00;101090.00;;;13.08;48.46
28004;BME280;15330;51.234;6.754;2023-04-06T11:48:27;101095.41;;;13.55;47.17
28004;BME280;15330;51.234;6.754;2023-04-06T11:50:59;101084.41;;;13.34;46.90
28004;BME280;15330;51.234;6.754;2023-04-06T11:53:26;101080.25;;;13.63;46.69
28004;BME280;15330;51.234;6.754;2023-04-06T11:55:52;101084.88;;;13.77;47.17
28004;BME280;15330;51.234;6.754;2023-04-06T11:58:17;101088.94;;;13.95;47.17
28004;BME280;15330;51.234;6.754;2023-04-06T12:00:43;101086.78;;;13.29;47.88
28004;BME280;15330;51.234;6.754;2023-04-06T12:03:11;101078.38;;;13.32;48.41
28004;BME280;15330;51.234;6.754;2023-04-06T12:05:37;101082.47;;;13.51;48.42
28004;BME280;15330;51.234;6.754;2023-04-06T12:08:03;101087.84;;;13.59;49.49
28004;BME280;15330;51.234;6.754;2023-04-06T12:10:29;101081.34;;;13.45;49.51
28004;BME280;15330;51.234;6.754;2023-04-06T12:12:54;101086.22;;;13.42;49.24
28004;BME280;15330;51.234;6.754;2023-04-06T12:15:20;101079.28;;;13.16;49.11
28004;BME280;15330;51.234;6.754;2023-04-06T12:17:45;101085.28;;;13.27;48.86
28004;BME280;15330;51.234;6.754;2023-04-06T12:20:11;101074.59;;;13.02;48.75
28004;BME280;15330;51.234;6.754;2023-04-06T12:22:36;101070.66;;;13.37;48.43
28004;BME280;15330;51.234;6.754;2023-04-06T12:25:02;101077.44;;;13.17;47.36
28004;BME280;15330;51.234;6.754;2023-04-06T12:27:28;101082.88;;;13.40;45.35
28004;BME280;15330;51.234;6.754;2023-04-06T12:29:53;101082.16;;;13.07;47.40
28004;BME280;15330;51.234;6.754;2023-04-06T12:32:19;101066.03;;;13.07;47.45
28004;BME280;15330;51.234;6.754;2023-04-06T12:34:44;101072.72;;;13.19;47.37
28004;BME280;15330;51.234;6.754;2023-04-06T12:37:10;101077.38;;;13.33;47.49
28004;BME280;15330;51.234;6.754;2023-04-06T12:39:35;101069.94;;;12.96;47.48
28004;BME280;15330;51.234;6.754;2023-04-06T12:42:01;101064.50;;;13.12;46.73
28004;BME280;15330;51.234;6.754;2023-04-06T12:44:27;101076.66;;;12.84;47.23
28004;BME280;15330;51.234;6.754;2023-04-06T12:46:53;101067.94;;;12.82;47.15
28004;BME280;15330;51.234;6.754;2023-04-06T12:49:18;101076.91;;;13.21;47.42
28004;BME280;15330;51.234;6.754;2023-04-06T12:51:44;101077.94;;;13.04;47.97
28004;BME280;15330;51.234;6.754;2023-04-06T12:54:10;101079.03;;;12.71;49.80